Time;durP1;ratioP1;P1;durP2;ratioP2;P2;SDS_P1;SDS_P2;PMS_P1;PMS_P2;Temp;Humidity;BMP_temperature;BMP_pressure;BME280_temperature;BME280_humidity;BME280_pressure;Samples;Min_cycle;Max_cycle;Signal;HPM_P1;HPM_P2
2022/04/11 00:01:36;;;;;;;1.45;0.90;;;;;;;;;;4954422;29;20050;-34
2022/04/11 00:04:01;;;;;;;1.58;0.90;;;;;;;;;;4954259;28;20031;-35
2022/04/11 00:06:26;;;;;;;2.83;0.60;;;;;;;;;;4954504;28;20034;-35
2022/04/11 00:08:52;;;;;;;1.23;0.57;;;;;;;;;;4954240;28;20114;-35
2022/04/11 00:11:17;;;;;;;2.60;0.80;;;;;;;;;;4954422;28;20023;-34
2022/04/11 00:13:42;;;;;;;0.52;0.52;;;;;;;;;;4954362;28;20496;-34
2022/04/11 00:16:08;;;;;;;1.73;1.15;;;;;;;;;;4954007;28;20426;-35
2022/04/11 00:18:36;;;;;;;1.13;0.98;;;;;;;;;;4954359;28;20070;-34
2022/04/11 00:21:02;;;;;;;1.50;0.85;;;;;;;;;;4953907;28;20549;-35
2022/04/11 00:23:27;;;;;;;3.58;1.02;;;;;;;;;;4954075;28;20070;-35
2022/04/11 00:25:52;;;;;;;1.15;0.77;;;;;;;;;;4954071;28;20050;-35
2022/04/11 00:28:18;;;;;;;4.13;0.98;;;;;;;;;;4954022;28;20034;-35
2022/04/11 00:30:43;;;;;;;0.80;0.73;;;;;;;;;;4953954;28;20070;-35
2022/04/11 00:33:09;;;;;;;1.23;0.80;;;;;;;;;;4968601;28;20055;-34
2022/04/11 00:35:34;;;;;;;1.42;0.70;;;;;;;;;;4953966;28;20098;-34
2022/04/11 00:37:59;;;;;;;1.38;1.02;;;;;;;;;;4968429;28;20490;-35
2022/04/11 00:40:25;;;;;;;1.60;0.70;;;;;;;;;;4953780;28;20027;-34
2022/04/11 00:42:50;;;;;;;3.55;0.90;;;;;;;;;;4953495;28;20027;-40
2022/04/11 00:45:16;;;;;;;1.40;0.70;;;;;;;;;;4968551;28;20485;-34
2022/04/11 00:47:42;;;;;;;0.63;0.63;;;;;;;;;;4953638;28;20611;-34
2022/04/11 00:50:09;;;;;;;1.67;0.93;;;;;;;;;;4953522;28;20096;-34
2022/04/11 00:52:37;;;;;;;0.93;0.65;;;;;;;;;;4953647;28;20027;-35
2022/04/11 00:55:02;;;;;;;1.35;1.08;;;;;;;;;;4952116;28;20114;-35
2022/04/11 00:57:28;;;;;;;0.68;0.50;;;;;;;;;;4953468;28;20106;-35
2022/04/11 00:59:54;;;;;;;1.15;0.65;;;;;;;;;;4953489;28;20023;-35
2022/04/11 01:02:19;;;;;;;0.73;0.60;;;;;;;;;;4967498;28;20494;-34
2022/04/11 01:04:44;;;;;;;0.45;0.45;;;;;;;;;;4952136;28;20034;-34
2022/04/11 01:07:10;;;;;;;1.55;0.75;;;;;;;;;;4968112;28;20114;-34
2022/04/11 01:09:36;;;;;;;0.90;0.73;;;;;;;;;;4953666;28;20481;-34
2022/04/11 01:12:02;;;;;;;3.03;0.50;;;;;;;;;;4951992;28;20478;-34
2022/04/11 01:14:28;;;;;;;2.00;0.63;;;;;;;;;;4951985;28;20035;-34
2022/04/11 01:16:53;;;;;;;1.02;0.82;;;;;;;;;;4968062;28;20030;-34
2022/04/11 01:19:19;;;;;;;1.70;0.60;;;;;;;;;;4951898;29;20386;-34
2022/04/11 01:21:45;;;;;;;0.80;0.70;;;;;;;;;;4968329;28;20058;-35
2022/04/11 01:24:11;;;;;;;0.95;0.45;;;;;;;;;;4953196;28;20070;-35
2022/04/11 01:26:37;;;;;;;0.70;0.65;;;;;;;;;;4953440;28;20039;-34
2022/04/11 01:29:04;;;;;;;1.00;0.55;;;;;;;;;;4953158;29;20441;-35
2022/04/11 01:31:31;;;;;;;2.60;1.02;;;;;;;;;;4951782;28;20422;-34
2022/04/11 01:33:56;;;;;;;1.27;0.80;;;;;;;;;;4951829;29;20493;-34
2022/04/11 01:36:22;;;;;;;0.88;0.70;;;;;;;;;;4953196;29;20030;-35
2022/04/11 01:38:47;;;;;;;0.90;0.77;;;;;;;;;;4951720;29;20110;-35
2022/04/11 01:41:13;;;;;;;1.70;0.82;;;;;;;;;;4967769;28;20035;-35
2022/04/11 01:43:38;;;;;;;1.42;0.80;;;;;;;;;;4951654;28;20091;-35
2022/04/11 01:46:05;;;;;;;0.90;0.80;;;;;;;;;;4967741;28;20051;-34
2022/04/11 01:48:50;;;;;;;1.80;1.20;;;;;;;;;;4952692;29;20117;-35
2022/04/11 01:51:16;;;;;;;1.40;0.95;;;;;;;;;;4967661;28;20062;-34
2022/04/11 01:53:41;;;;;;;1.23;0.60;;;;;;;;;;4952880;28;20081;-35
2022/04/11 01:56:07;;;;;;;0.93;0.80;;;;;;;;;;4952908;28;20020;-34
2022/04/11 01:58:33;;;;;;;0.75;0.73;;;;;;;;;;4951660;28;20378;-35
2022/04/11 02:00:59;;;;;;;1.17;0.60;;;;;;;;;;4952752;28;20038;-35
2022/04/11 02:03:27;;;;;;;0.98;0.80;;;;;;;;;;4951656;28;20028;-35
2022/04/11 02:05:53;;;;;;;1.83;0.90;;;;;;;;;;4952891;29;20086;-34
2022/04/11 02:08:19;;;;;;;1.33;0.80;;;;;;;;;;4952929;28;20030;-34
2022/04/11 02:10:44;;;;;;;0.60;0.60;;;;;;;;;;4967700;28;20031;-35
2022/04/11 02:13:10;;;;;;;0.70;0.70;;;;;;;;;;4953633;28;20062;-34
2022/04/11 02:15:37;;;;;;;1.50;0.90;;;;;;;;;;4971085;28;20047;-34
2022/04/11 02:18:03;;;;;;;1.67;0.77;;;;;;;;;;4955003;28;20465;-35
2022/04/11 02:20:29;;;;;;;0.85;0.77;;;;;;;;;;4956507;28;20042;-34
2022/04/11 02:22:56;;;;;;;0.75;0.60;;;;;;;;;;4956802;28;20094;-34
2022/04/11 02:25:22;;;;;;;2.03;1.20;;;;;;;;;;4970906;28;20553;-34
2022/04/11 02:27:48;;;;;;;1.13;1.02;;;;;;;;;;4954818;28;20019;-34
2022/04/11 02:30:16;;;;;;;0.63;0.52;;;;;;;;;;4970866;28;20031;-34
2022/04/11 02:32:42;;;;;;;1.17;0.85;;;;;;;;;;4956072;28;20063;-34
2022/04/11 02:35:07;;;;;;;1.52;0.60;;;;;;;;;;4955839;28;20047;-34
2022/04/11 02:37:33;;;;;;;1.02;0.73;;;;;;;;;;4954701;28;20023;-34
2022/04/11 02:39:59;;;;;;;3.75;0.95;;;;;;;;;;4970659;28;20557;-34
2022/04/11 02:42:25;;;;;;;2.10;0.70;;;;;;;;;;4954625;28;20355;-34
2022/04/11 02:44:57;;;;;;;1.65;0.82;;;;;;;;;;4970590;28;20454;-34
2022/04/11 02:47:22;;;;;;;4.40;0.70;;;;;;;;;;4970490;28;20115;-34
2022/04/11 02:49:48;;;;;;;2.38;0.93;;;;;;;;;;4970508;28;20035;-34
2022/04/11 02:52:40;;;;;;;1.95;0.98;;;;;;;;;;4947549;28;20039;-34
2022/04/11 02:55:06;;;;;;;1.15;0.90;;;;;;;;;;4970286;28;20128;-35
2022/04/11 02:57:32;;;;;;;1.33;0.68;;;;;;;;;;4970296;28;20031;-34
2022/04/11 02:59:57;;;;;;;0.80;0.77;;;;;;;;;;4955613;28;20031;-34
2022/04/11 03:02:23;;;;;;;1.58;0.90;;;;;;;;;;4954239;29;20466;-34
2022/04/11 03:04:49;;;;;;;0.90;0.85;;;;;;;;;;4970292;28;20034;-34
2022/04/11 03:07:18;;;;;;;1.27;0.65;;;;;;;;;;4954041;28;20023;-34
2022/04/11 03:09:45;;;;;;;0.80;0.60;;;;;;;;;;4970174;28;20031;-34
2022/04/11 03:12:11;;;;;;;2.78;1.05;;;;;;;;;;4970245;28;20122;-34
2022/04/11 03:14:37;;;;;;;0.82;0.60;;;;;;;;;;4970101;28;20410;-34
2022/04/11 03:17:04;;;;;;;1.02;0.90;;;;;;;;;;4969934;28;20422;-35
2022/04/11 03:19:33;;;;;;;0.95;0.60;;;;;;;;;;4970006;28;20038;-34
2022/04/11 03:21:59;;;;;;;1.88;0.98;;;;;;;;;;4953765;29;20458;-34
2022/04/11 03:24:25;;;;;;;1.17;0.60;;;;;;;;;;4954467;28;20108;-34
2022/04/11 03:26:51;;;;;;;0.82;0.82;;;;;;;;;;4953795;28;20023;-34
2022/04/11 03:29:24;;;;;;;1.00;0.82;;;;;;;;;;4969904;28;20064;-34
2022/04/11 03:31:50;;;;;;;2.05;1.40;;;;;;;;;;4969736;28;20035;-34
2022/04/11 03:34:17;;;;;;;1.58;1.08;;;;;;;;;;4953483;28;20062;-34
2022/04/11 03:36:43;;;;;;;1.30;1.00;;;;;;;;;;4969715;28;20059;-34
2022/04/11 03:39:09;;;;;;;1.30;0.75;;;;;;;;;;4969571;28;20068;-34
2022/04/11 03:41:38;;;;;;;1.52;0.85;;;;;;;;;;4969595;28;20031;-34
2022/04/11 03:44:12;;;;;;;1.58;1.10;;;;;;;;;;4953239;28;20059;-34
2022/04/11 03:46:39;;;;;;;0.60;0.60;;;;;;;;;;4969457;28;20090;-34
2022/04/11 03:49:07;;;;;;;1.13;0.85;;;;;;;;;;4953281;29;20038;-35
2022/04/11 03:51:33;;;;;;;2.35;1.15;;;;;;;;;;4953377;28;20389;-34
2022/04/11 03:54:02;;;;;;;2.40;1.33;;;;;;;;;;4953121;28;20051;-35
2022/04/11 03:56:28;;;;;;;3.88;0.80;;;;;;;;;;4969316;28;20066;-34
2022/04/11 03:58:53;;;;;;;0.88;0.70;;;;;;;;;;4953275;28;20034;-34
2022/04/11 04:01:20;;;;;;;1.08;0.75;;;;;;;;;;4969090;28;20032;-34
2022/04/11 04:03:47;;;;;;;1.05;0.95;;;;;;;;;;4953151;29;20083;-34
2022/04/11 04:06:13;;;;;;;0.90;0.70;;;;;;;;;;4969132;28;20035;-34
2022/04/11 04:08:42;;;;;;;0.90;0.68;;;;;;;;;;4952989;28;20120;-34
2022/04/11 04:11:16;;;;;;;0.80;0.80;;;;;;;;;;4968934;28;20059;-34
2022/04/11 04:13:50;;;;;;;1.13;0.93;;;;;;;;;;4968951;28;20393;-35
2022/04/11 04:16:15;;;;;;;1.45;0.68;;;;;;;;;;4968886;28;20031;-34
2022/04/11 04:18:48;;;;;;;2.20;1.05;;;;;;;;;;4969012;28;20385;-34
2022/04/11 04:21:13;;;;;;;0.85;0.60;;;;;;;;;;4968824;28;20031;-34
2022/04/11 04:23:41;;;;;;;2.10;0.95;;;;;;;;;;4952733;28;20051;-34
2022/04/11 04:26:07;;;;;;;0.57;0.50;;;;;;;;;;4953901;28;20035;-34
2022/04/11 04:28:33;;;;;;;1.10;0.82;;;;;;;;;;4952783;29;20038;-34
2022/04/11 04:30:58;;;;;;;2.33;0.82;;;;;;;;;;4968716;28;20035;-34
2022/04/11 04:33:24;;;;;;;1.02;0.93;;;;;;;;;;4952503;28;20023;-34
2022/04/11 04:35:51;;;;;;;0.90;0.60;;;;;;;;;;4951690;28;20041;-34
2022/04/11 04:38:16;;;;;;;2.50;0.68;;;;;;;;;;4952386;28;20125;-34
2022/04/11 04:40:48;;;;;;;1.55;1.02;;;;;;;;;;4968620;28;20039;-34
2022/04/11 04:43:19;;;;;;;1.40;0.50;;;;;;;;;;4968331;28;20082;-34
2022/04/11 04:45:46;;;;;;;0.50;0.50;;;;;;;;;;4968572;28;20478;-34
2022/04/11 04:48:30;;;;;;;1.95;0.93;;;;;;;;;;4952445;28;20466;-34
2022/04/11 04:50:56;;;;;;;1.02;0.68;;;;;;;;;;4968408;28;20042;-34
2022/04/11 04:53:23;;;;;;;1.85;0.85;;;;;;;;;;4952254;28;20481;-34
2022/04/11 04:55:51;;;;;;;0.75;0.75;;;;;;;;;;4952312;28;20043;-34
2022/04/11 04:58:16;;;;;;;1.25;0.80;;;;;;;;;;4952162;28;20553;-34
2022/04/11 05:00:43;;;;;;;1.42;1.00;;;;;;;;;;4968364;28;20035;-34
2022/04/11 05:03:12;;;;;;;2.45;0.93;;;;;;;;;;4968187;28;20062;-34
2022/04/11 05:05:38;;;;;;;0.80;0.63;;;;;;;;;;4953400;28;20055;-34
2022/04/11 05:08:04;;;;;;;1.67;0.70;;;;;;;;;;4953313;28;20015;-34
2022/04/11 05:10:32;;;;;;;1.23;1.10;;;;;;;;;;4968160;28;20046;-34
2022/04/11 05:12:57;;;;;;;1.45;0.85;;;;;;;;;;4952019;28;20027;-34
2022/04/11 05:15:23;;;;;;;1.30;1.00;;;;;;;;;;4968035;28;20401;-34
2022/04/11 05:17:54;;;;;;;5.97;0.95;;;;;;;;;;4951972;28;20019;-34
2022/04/11 05:20:22;;;;;;;1.02;0.93;;;;;;;;;;4968021;28;20063;-34
2022/04/11 05:22:48;;;;;;;1.40;0.63;;;;;;;;;;4952082;28;20019;-34
2022/04/11 05:25:15;;;;;;;2.30;0.95;;;;;;;;;;4968330;28;20035;-34
2022/04/11 05:27:41;;;;;;;1.52;0.93;;;;;;;;;;4951868;29;20026;-34
2022/04/11 05:30:07;;;;;;;2.00;0.90;;;;;;;;;;4967902;28;20054;-34
2022/04/11 05:32:35;;;;;;;0.80;0.80;;;;;;;;;;4951910;28;20020;-34
2022/04/11 05:35:00;;;;;;;1.58;0.80;;;;;;;;;;4967718;28;20110;-34
2022/04/11 05:37:26;;;;;;;1.70;0.80;;;;;;;;;;4951778;29;20024;-34
2022/04/11 05:39:52;;;;;;;0.57;0.55;;;;;;;;;;4967812;28;20038;-35
2022/04/11 05:42:21;;;;;;;0.60;0.60;;;;;;;;;;4951702;28;20085;-34
2022/04/11 05:44:47;;;;;;;1.30;0.68;;;;;;;;;;4967735;28;20541;-34
2022/04/11 05:47:12;;;;;;;1.13;0.70;;;;;;;;;;4953719;28;20166;-33
2022/04/11 05:49:45;;;;;;;1.80;1.20;;;;;;;;;;4971710;28;20652;-34
2022/04/11 05:52:13;;;;;;;1.35;0.88;;;;;;;;;;4955435;28;20093;-34
2022/04/11 05:54:38;;;;;;;1.50;1.23;;;;;;;;;;4955346;28;20035;-34
2022/04/11 05:57:04;;;;;;;1.42;0.70;;;;;;;;;;4971459;28;20039;-34
2022/04/11 05:59:30;;;;;;;1.95;0.80;;;;;;;;;;4956581;28;20034;-34
2022/04/11 06:01:57;;;;;;;1.00;0.75;;;;;;;;;;4971407;28;20038;-34
2022/04/11 06:04:22;;;;;;;1.73;0.63;;;;;;;;;;4955276;28;20478;-34
2022/04/11 12:46:46;;;;;;;2.60;1.15;;;;;;;;;;5068508;27;20391;-36
2022/04/11 12:49:13;;;;;;;3.17;0.98;;;;;;;;;;5068919;28;20086;-37
2022/04/11 12:51:39;;;;;;;1.27;0.73;;;;;;;;;;5068589;28;20506;-36
2022/04/11 12:54:06;;;;;;;0.85;0.68;;;;;;;;;;5068377;28;20037;-35
2022/04/11 12:56:39;;;;;;;0.50;0.50;;;;;;;;;;5068489;28;20459;-41
2022/04/11 12:59:04;;;;;;;0.63;0.63;;;;;;;;;;5068391;28;20020;-36
2022/04/11 13:02:08;;;;;;;1.42;0.70;;;;;;;;;;5068446;28;20031;-36
2022/04/11 13:04:35;;;;;;;0.80;0.57;;;;;;;;;;5045920;28;20034;-36
2022/04/11 13:07:01;;;;;;;0.93;0.63;;;;;;;;;;5045784;28;20048;-36
2022/04/11 13:09:27;;;;;;;0.40;0.40;;;;;;;;;;5056559;28;20036;-36
2022/04/11 13:11:53;;;;;;;1.13;0.68;;;;;;;;;;5068080;28;20371;-36
2022/04/11 13:14:20;;;;;;;1.23;0.85;;;;;;;;;;5068088;28;20114;-36
2022/04/11 13:19:29;;;;;;;0.85;0.52;;;;;;;;;;5068035;28;20024;-36
2022/04/11 13:21:55;;;;;;;0.63;0.45;;;;;;;;;;5067894;28;20021;-36
2022/04/11 13:24:21;;;;;;;0.73;0.60;;;;;;;;;;5066669;28;20056;-36
2022/04/11 13:26:48;;;;;;;2.30;0.95;;;;;;;;;;5068028;28;20067;-36
2022/04/11 13:29:13;;;;;;;8.05;2.83;;;;;;;;;;5067707;28;20064;-36
2022/04/11 13:31:39;;;;;;;1.15;0.57;;;;;;;;;;5068065;28;20055;-36
2022/04/11 13:34:04;;;;;;;0.65;0.47;;;;;;;;;;5067526;28;20449;-36
2022/04/11 13:36:30;;;;;;;0.75;0.55;;;;;;;;;;5067528;28;20029;-36
2022/04/11 13:38:56;;;;;;;1.15;0.40;;;;;;;;;;5067550;28;20083;-36
2022/04/11 13:41:21;;;;;;;1.35;0.80;;;;;;;;;;5068037;28;20067;-36
2022/04/11 13:43:47;;;;;;;1.10;0.55;;;;;;;;;;5067426;28;20489;-36
2022/04/11 13:46:12;;;;;;;0.60;0.45;;;;;;;;;;5061367;28;20073;-38
2022/04/11 13:48:38;;;;;;;2.70;0.60;;;;;;;;;;5054510;28;20052;-37
2022/04/11 13:51:03;;;;;;;0.88;0.70;;;;;;;;;;5052884;28;20021;-36
2022/04/11 13:53:29;;;;;;;0.52;0.52;;;;;;;;;;5054117;28;20401;-36
2022/04/11 13:55:55;;;;;;;1.27;0.47;;;;;;;;;;5054014;28;20033;-36
2022/04/11 13:58:20;;;;;;;4.55;0.60;;;;;;;;;;5054003;28;20137;-36
2022/04/11 14:00:46;;;;;;;1.15;0.60;;;;;;;;;;5053910;28;20078;-37
2022/04/11 14:03:12;;;;;;;0.60;0.60;;;;;;;;;;5054237;28;20079;-36
2022/04/11 14:05:38;;;;;;;0.43;0.40;;;;;;;;;;5054159;28;20419;-36
2022/04/11 14:08:04;;;;;;;0.50;0.38;;;;;;;;;;5053727;28;20380;-36
2022/04/11 14:10:29;;;;;;;0.50;0.50;;;;;;;;;;5053815;28;20021;-36
2022/04/11 14:12:55;;;;;;;0.40;0.40;;;;;;;;;;5053677;28;20116;-37
2022/04/11 14:15:20;;;;;;;0.75;0.70;;;;;;;;;;5053626;28;20033;-36
2022/04/11 14:17:46;;;;;;;1.80;0.45;;;;;;;;;;5053457;28;20029;-36
2022/04/11 14:20:13;;;;;;;0.50;0.50;;;;;;;;;;5053633;28;20016;-36
2022/04/11 14:22:38;;;;;;;0.40;0.40;;;;;;;;;;5053904;28;20035;-37
2022/04/11 14:25:06;;;;;;;0.35;0.35;;;;;;;;;;5053421;28;20382;-36
2022/04/11 14:27:31;;;;;;;0.70;0.70;;;;;;;;;;5053471;28;20116;-37
2022/04/11 14:29:57;;;;;;;1.13;0.60;;;;;;;;;;5053469;28;20092;-36
2022/04/11 14:32:22;;;;;;;0.43;0.43;;;;;;;;;;5053682;28;20025;-36
2022/04/11 14:34:48;;;;;;;0.50;0.50;;;;;;;;;;5053238;28;20445;-37
2022/04/11 14:37:13;;;;;;;0.77;0.77;;;;;;;;;;5053221;28;20033;-36
2022/04/11 14:39:40;;;;;;;0.90;0.50;;;;;;;;;;5053356;28;20029;-36
2022/04/11 14:42:06;;;;;;;0.45;0.30;;;;;;;;;;5053165;28;20056;-36
2022/04/11 14:44:31;;;;;;;0.73;0.55;;;;;;;;;;5052998;28;20096;-36
2022/04/11 14:46:57;;;;;;;0.22;0.22;;;;;;;;;;5053101;28;20120;-37
2022/04/11 14:49:22;;;;;;;0.40;0.40;;;;;;;;;;5053130;28;20025;-36
2022/04/11 14:51:48;;;;;;;0.40;0.40;;;;;;;;;;5052987;28;20033;-36
2022/04/11 14:54:13;;;;;;;0.43;0.43;;;;;;;;;;5053238;28;20111;-36
2022/04/11 14:56:39;;;;;;;0.70;0.70;;;;;;;;;;5052888;28;20037;-36
2022/04/11 14:59:04;;;;;;;1.25;0.45;;;;;;;;;;5052157;28;20051;-37
2022/04/11 15:01:30;;;;;;;3.40;0.52;;;;;;;;;;5053122;28;20110;-36
2022/04/11 15:03:55;;;;;;;0.55;0.43;;;;;;;;;;5052741;28;20459;-36
2022/04/11 15:06:21;;;;;;;0.52;0.47;;;;;;;;;;5053080;28;20036;-36
2022/04/11 15:08:50;;;;;;;1.20;0.60;;;;;;;;;;5052832;28;20029;-36
2022/04/11 15:11:16;;;;;;;0.95;0.50;;;;;;;;;;5052954;28;20483;-36
2022/04/11 15:13:43;;;;;;;1.27;0.57;;;;;;;;;;5052593;28;20070;-36
2022/04/11 15:16:09;;;;;;;0.77;0.50;;;;;;;;;;5052486;28;20040;-38
2022/04/11 15:18:34;;;;;;;0.70;0.70;;;;;;;;;;5051609;28;20024;-37
2022/04/11 15:21:01;;;;;;;0.50;0.50;;;;;;;;;;5052329;28;20037;-36
2022/04/11 15:23:27;;;;;;;0.65;0.32;;;;;;;;;;5052450;28;20021;-36
2022/04/11 15:25:53;;;;;;;0.85;0.50;;;;;;;;;;5052291;28;20079;-37
2022/04/11 15:28:19;;;;;;;0.80;0.52;;;;;;;;;;5052288;28;20025;-36
2022/04/11 15:30:45;;;;;;;0.70;0.45;;;;;;;;;;5052251;28;20061;-36
2022/04/11 15:33:10;;;;;;;0.75;0.40;;;;;;;;;;5052264;28;20060;-37
2022/04/11 15:35:36;;;;;;;0.35;0.35;;;;;;;;;;5052477;28;20090;-36
2022/04/11 15:38:01;;;;;;;0.50;0.50;;;;;;;;;;5052035;28;20534;-36
2022/04/11 15:40:27;;;;;;;0.95;0.57;;;;;;;;;;5052083;28;20040;-36
2022/04/11 15:42:52;;;;;;;1.67;0.80;;;;;;;;;;5052049;28;20021;-36
2022/04/11 15:45:21;;;;;;;0.60;0.60;;;;;;;;;;5052019;28;20122;-37
2022/04/11 15:47:47;;;;;;;2.10;0.57;;;;;;;;;;5052113;28;20540;-37
2022/04/11 15:50:13;;;;;;;1.38;0.70;;;;;;;;;;5051923;28;20553;-36
2022/04/11 15:52:39;;;;;;;1.23;0.70;;;;;;;;;;5052146;28;20032;-36
2022/04/11 15:55:05;;;;;;;0.45;0.45;;;;;;;;;;5052031;28;20127;-36
2022/04/11 15:57:30;;;;;;;1.17;0.60;;;;;;;;;;5051643;28;20367;-37
2022/04/11 15:59:56;;;;;;;1.23;0.60;;;;;;;;;;5051696;28;20037;-36
2022/04/11 16:02:22;;;;;;;0.60;0.60;;;;;;;;;;5051726;28;20016;-36
2022/04/11 16:04:47;;;;;;;6.40;1.00;;;;;;;;;;5051838;28;20032;-36
2022/04/11 16:07:13;;;;;;;1.25;0.50;;;;;;;;;;5051710;28;20017;-37
2022/04/11 16:09:38;;;;;;;0.73;0.73;;;;;;;;;;5051792;28;20033;-36
2022/04/11 16:12:04;;;;;;;1.60;0.88;;;;;;;;;;5051557;28;20519;-36
2022/04/11 16:14:30;;;;;;;1.40;1.13;;;;;;;;;;5051742;28;20040;-36
2022/04/11 16:16:55;;;;;;;0.88;0.68;;;;;;;;;;5051382;28;20025;-36
2022/04/11 16:19:21;;;;;;;1.10;0.70;;;;;;;;;;5051540;28;20024;-36
2022/04/11 16:21:47;;;;;;;0.80;0.75;;;;;;;;;;5051681;28;20056;-36
2022/04/11 16:24:12;;;;;;;2.00;0.77;;;;;;;;;;5051507;28;20029;-36
2022/04/11 16:26:38;;;;;;;3.50;0.70;;;;;;;;;;5051426;28;20025;-36
2022/04/11 16:29:03;;;;;;;3.17;0.80;;;;;;;;;;5051683;28;20864;-36
2022/04/11 16:31:29;;;;;;;1.10;0.60;;;;;;;;;;5051662;28;20415;-36
2022/04/11 16:33:54;;;;;;;0.70;0.57;;;;;;;;;;5051222;28;20124;-36
2022/04/11 16:36:20;;;;;;;0.98;0.70;;;;;;;;;;5051265;28;20024;-36
2022/04/11 16:38:45;;;;;;;3.40;0.70;;;;;;;;;;5051364;28;20429;-36
2022/04/11 16:41:11;;;;;;;0.63;0.60;;;;;;;;;;5051516;28;20418;-36
2022/04/11 16:43:36;;;;;;;0.85;0.70;;;;;;;;;;5051604;28;20426;-36
2022/04/11 16:46:02;;;;;;;3.60;0.60;;;;;;;;;;5049906;28;20041;-36
2022/04/11 16:48:28;;;;;;;0.73;0.68;;;;;;;;;;5051425;28;20045;-36
2022/04/11 16:50:54;;;;;;;0.40;0.40;;;;;;;;;;5051461;28;20466;-36
2022/04/11 16:53:20;;;;;;;0.60;0.60;;;;;;;;;;5051462;28;20081;-36
2022/04/11 16:55:47;;;;;;;0.73;0.47;;;;;;;;;;5051029;28;20032;-36
2022/04/11 16:58:12;;;;;;;0.50;0.50;;;;;;;;;;5050212;28;20048;-36
2022/04/11 17:00:38;;;;;;;1.25;0.50;;;;;;;;;;5051347;28;20474;-37
2022/04/11 17:03:04;;;;;;;0.88;0.85;;;;;;;;;;5051049;28;20029;-36
2022/04/11 17:05:29;;;;;;;1.17;0.80;;;;;;;;;;5051352;28;20029;-37
2022/04/11 17:07:55;;;;;;;0.77;0.77;;;;;;;;;;5051182;28;20032;-36
2022/04/11 17:10:21;;;;;;;0.47;0.43;;;;;;;;;;5051332;28;20183;-36
2022/04/11 17:12:46;;;;;;;0.30;0.30;;;;;;;;;;5050950;28;20037;-36
2022/04/11 17:20:40;;;;;;;0.50;0.50;;;;;;;;;;5051016;28;20037;-36
2022/04/11 17:23:06;;;;;;;1.10;0.50;;;;;;;;;;5054625;28;20387;-36
2022/04/11 17:25:31;;;;;;;1.48;0.82;;;;;;;;;;5054925;28;20033;-36
2022/04/11 17:27:57;;;;;;;1.65;0.73;;;;;;;;;;5054514;28;20028;-36
2022/04/11 17:30:22;;;;;;;1.65;0.50;;;;;;;;;;5054560;28;20029;-36
2022/04/11 17:32:48;;;;;;;0.80;0.80;;;;;;;;;;5054693;28;20111;-36
2022/04/11 17:35:13;;;;;;;3.22;0.60;;;;;;;;;;5054382;28;20135;-37
2022/04/11 17:37:39;;;;;;;0.80;0.40;;;;;;;;;;5054723;28;20104;-36
2022/04/11 17:40:06;;;;;;;0.50;0.50;;;;;;;;;;5054377;28;20033;-36
2022/04/11 17:42:32;;;;;;;0.95;0.50;;;;;;;;;;5054405;28;20028;-36
2022/04/11 17:44:58;;;;;;;0.35;0.35;;;;;;;;;;5054272;28;20049;-37
2022/04/11 17:47:26;;;;;;;0.80;0.50;;;;;;;;;;5054270;28;20489;-36
2022/04/11 17:49:51;;;;;;;1.17;0.70;;;;;;;;;;5054481;28;20033;-36
2022/04/11 17:52:17;;;;;;;0.68;0.63;;;;;;;;;;5054230;28;20024;-36
2022/04/11 17:54:42;;;;;;;1.05;0.95;;;;;;;;;;5054048;28;20579;-36
2022/04/11 17:57:08;;;;;;;2.33;0.75;;;;;;;;;;5054029;28;20017;-36
2022/04/11 17:59:34;;;;;;;0.75;0.57;;;;;;;;;;5053988;28;20060;-36
2022/04/11 18:01:59;;;;;;;0.40;0.40;;;;;;;;;;5054251;28;20064;-37
2022/04/11 18:04:25;;;;;;;2.70;0.90;;;;;;;;;;5053960;28;20475;-37
2022/04/11 18:06:50;;;;;;;0.70;0.70;;;;;;;;;;5053740;28;20024;-36
2022/04/11 18:09:16;;;;;;;2.03;0.95;;;;;;;;;;5053948;28;20036;-37
2022/04/11 18:11:41;;;;;;;0.65;0.55;;;;;;;;;;5054150;28;20021;-36
2022/04/11 18:14:07;;;;;;;0.65;0.63;;;;;;;;;;5053661;28;20470;-36
2022/04/11 18:16:32;;;;;;;2.67;0.90;;;;;;;;;;5053667;28;20060;-37
2022/04/11 18:18:58;;;;;;;0.55;0.50;;;;;;;;;;5053913;28;20032;-37
2022/04/11 18:21:23;;;;;;;1.70;0.90;;;;;;;;;;5053656;28;20091;-36
2022/04/11 18:23:49;;;;;;;0.75;0.65;;;;;;;;;;5053541;28;20039;-36
2022/04/11 18:26:14;;;;;;;3.00;0.70;;;;;;;;;;5053732;28;20017;-36
2022/04/11 18:31:35;;;;;;;2.75;0.65;;;;;;;;;;5053784;28;20112;-36
2022/04/11 18:34:01;;;;;;;3.65;0.65;;;;;;;;;;5053144;28;20039;-37
2022/04/11 18:36:26;;;;;;;1.25;0.60;;;;;;;;;;5053621;28;20399;-36
2022/04/11 18:38:52;;;;;;;4.50;0.90;;;;;;;;;;5053303;28;20104;-36
2022/04/11 18:41:17;;;;;;;1.40;0.60;;;;;;;;;;5053526;28;20021;-38
2022/04/11 18:43:43;;;;;;;1.00;0.60;;;;;;;;;;5053257;28;20029;-36
2022/04/11 18:46:09;;;;;;;0.68;0.68;;;;;;;;;;5052978;28;20128;-36
2022/04/11 18:48:35;;;;;;;2.50;0.80;;;;;;;;;;5053226;28;20115;-36
2022/04/11 18:51:03;;;;;;;3.75;0.70;;;;;;;;;;5053062;28;20021;-40
2022/04/11 18:53:29;;;;;;;1.17;0.80;;;;;;;;;;5053047;28;20033;-37
2022/04/11 18:55:55;;;;;;;0.50;0.50;;;;;;;;;;5052902;28;20079;-36
2022/04/11 18:58:21;;;;;;;2.05;0.80;;;;;;;;;;5053177;28;20025;-36
2022/04/11 19:00:47;;;;;;;1.33;0.60;;;;;;;;;;5053188;28;20024;-36
2022/04/11 19:03:13;;;;;;;0.75;0.50;;;;;;;;;;5052852;28;20445;-36
2022/04/11 19:05:41;;;;;;;0.60;0.60;;;;;;;;;;5052796;28;20017;-37
2022/04/11 19:08:07;;;;;;;0.77;0.77;;;;;;;;;;5052638;28;20032;-36
2022/04/11 19:10:33;;;;;;;2.38;0.65;;;;;;;;;;5052690;28;20025;-37
2022/04/11 19:12:58;;;;;;;2.08;1.02;;;;;;;;;;5052516;28;20087;-36
2022/04/11 19:15:24;;;;;;;4.10;0.75;;;;;;;;;;5052512;28;20043;-36
2022/04/11 19:17:49;;;;;;;0.68;0.60;;;;;;;;;;5051204;28;20064;-36
2022/04/11 19:20:15;;;;;;;1.63;0.68;;;;;;;;;;5052559;28;20176;-36
2022/04/11 19:22:40;;;;;;;1.80;1.10;;;;;;;;;;5051544;28;20040;-36
2022/04/11 19:25:09;;;;;;;1.45;0.70;;;;;;;;;;5052361;28;20017;-37
2022/04/11 19:27:35;;;;;;;2.03;0.95;;;;;;;;;;5052352;28;20033;-37
2022/04/11 19:30:01;;;;;;;1.00;0.70;;;;;;;;;;5052271;28;20104;-36
2022/04/11 19:32:27;;;;;;;3.97;0.80;;;;;;;;;;5052311;28;20059;-36
2022/04/11 19:34:52;;;;;;;0.63;0.63;;;;;;;;;;5052417;28;20025;-37
2022/04/11 19:37:18;;;;;;;0.95;0.70;;;;;;;;;;5052414;28;20463;-36
2022/04/11 19:39:43;;;;;;;0.32;0.32;;;;;;;;;;5052205;28;20100;-36
2022/04/11 19:42:09;;;;;;;2.33;0.52;;;;;;;;;;5052022;28;20399;-37
2022/04/11 19:44:35;;;;;;;1.42;0.88;;;;;;;;;;5051452;28;20523;-36
2022/04/11 19:47:02;;;;;;;0.93;0.55;;;;;;;;;;5051967;28;20032;-36
2022/04/11 19:52:12;;;;;;;1.13;0.90;;;;;;;;;;5051941;28;20031;-36
2022/04/11 19:54:39;;;;;;;4.18;1.48;;;;;;;;;;5051880;28;20386;-36
2022/04/11 19:57:08;;;;;;;1.33;0.80;;;;;;;;;;5051709;28;20082;-37
2022/04/11 19:59:34;;;;;;;1.30;0.93;;;;;;;;;;5051798;28;20562;-37
2022/04/11 20:01:59;;;;;;;1.00;0.75;;;;;;;;;;5051704;28;20120;-36
2022/04/11 20:04:30;;;;;;;1.45;0.98;;;;;;;;;;5052075;28;20060;-37
2022/04/11 20:06:58;;;;;;;7.30;0.90;;;;;;;;;;5050302;28;20079;-36
2022/04/11 20:09:24;;;;;;;7.18;1.27;;;;;;;;;;5051982;28;20414;-38
2022/04/11 20:11:50;;;;;;;1.73;0.77;;;;;;;;;;5051555;28;20025;-36
2022/04/11 20:14:15;;;;;;;2.08;1.23;;;;;;;;;;5051586;28;20032;-36
2022/04/11 20:16:41;;;;;;;2.45;0.98;;;;;;;;;;5051618;28;20033;-36
2022/04/11 20:19:06;;;;;;;1.00;0.80;;;;;;;;;;5051739;28;20459;-36
2022/04/11 20:21:32;;;;;;;2.97;1.27;;;;;;;;;;5051815;28;20486;-37
2022/04/11 20:23:58;;;;;;;1.23;0.80;;;;;;;;;;5051375;28;20013;-37
2022/04/11 20:26:23;;;;;;;2.03;1.10;;;;;;;;;;5051382;28;20032;-36
2022/04/11 20:28:49;;;;;;;2.45;0.98;;;;;;;;;;5051483;28;20028;-37
2022/04/11 20:31:15;;;;;;;1.40;1.10;;;;;;;;;;5051403;28;20033;-36
2022/04/11 20:33:41;;;;;;;2.67;1.15;;;;;;;;;;5051450;28;20139;-36
2022/04/11 20:36:07;;;;;;;3.15;0.80;;;;;;;;;;5051162;28;20060;-36
2022/04/11 20:38:36;;;;;;;1.25;0.75;;;;;;;;;;5051380;28;20063;-37
2022/04/11 20:41:02;;;;;;;0.90;0.82;;;;;;;;;;5051565;28;20421;-37
2022/04/11 20:43:27;;;;;;;0.90;0.80;;;;;;;;;;5051300;28;20502;-36
2022/04/11 20:45:53;;;;;;;1.55;0.88;;;;;;;;;;5050998;28;20072;-37
2022/04/11 20:48:18;;;;;;;1.00;0.88;;;;;;;;;;5051265;28;20166;-36
2022/04/11 20:50:44;;;;;;;7.63;1.60;;;;;;;;;;5051248;28;20049;-36
2022/04/11 20:53:10;;;;;;;2.08;0.85;;;;;;;;;;5051084;28;20051;-36
2022/04/11 20:55:41;;;;;;;0.73;0.73;;;;;;;;;;5051138;28;20124;-36
2022/04/11 20:58:07;;;;;;;1.02;0.93;;;;;;;;;;5055118;28;20071;-36
2022/04/11 21:00:33;;;;;;;5.90;0.80;;;;;;;;;;5055105;28;20102;-36
2022/04/11 21:02:59;;;;;;;3.80;1.02;;;;;;;;;;5055099;28;20525;-37
2022/04/11 21:05:25;;;;;;;7.55;1.20;;;;;;;;;;5055356;28;20021;-36
2022/04/11 21:07:50;;;;;;;2.60;0.80;;;;;;;;;;5053598;28;20025;-36
2022/04/11 21:10:16;;;;;;;1.23;1.02;;;;;;;;;;5055327;28;20027;-38
2022/04/11 21:12:41;;;;;;;2.40;0.75;;;;;;;;;;5055192;28;20345;-37
2022/04/11 21:15:07;;;;;;;2.13;0.80;;;;;;;;;;5055075;28;20505;-36
2022/04/11 21:17:32;;;;;;;2.42;1.13;;;;;;;;;;5055103;28;20440;-37
2022/04/11 21:19:57;;;;;;;4.25;1.08;;;;;;;;;;5054932;28;20025;-36
2022/04/11 21:22:23;;;;;;;2.92;0.88;;;;;;;;;;5054789;28;20583;-36
2022/04/11 21:24:48;;;;;;;0.85;0.75;;;;;;;;;;5055023;28;20108;-36
2022/04/11 21:27:14;;;;;;;4.05;1.10;;;;;;;;;;5053218;28;20021;-36
2022/04/11 21:29:39;;;;;;;3.08;0.82;;;;;;;;;;5054645;28;20013;-36
2022/04/11 21:32:07;;;;;;;1.25;1.05;;;;;;;;;;5054526;28;20025;-37